Time;durP1;ratioP1;P1;durP2;ratioP2;P2;SDS_P1;SDS_P2;PMS_P1;PMS_P2;Temp;Humidity;BMP_temperature;BMP_pressure;BME280_temperature;BME280_humidity;BME280_pressure;Samples;Min_cycle;Max_cycle;Signal;HPM_P1;HPM_P2
2021/10/19 00:01:50;;;;;;;23.45;14.23;;;13.00;99.30;;;;;;5035475;28;20382;-52
2021/10/19 00:04:16;;;;;;;23.85;14.77;;;13.00;99.30;;;;;;5038975;28;20065;-53
2021/10/19 00:06:42;;;;;;;21.45;14.25;;;13.00;99.30;;;;;;5009632;28;20413;-52
2021/10/19 00:09:08;;;;;;;22.70;15.75;;;13.00;99.20;;;;;;5037540;28;20112;-52
2021/10/19 00:11:33;;;;;;;22.83;15.40;;;13.00;99.30;;;;;;5035835;28;20048;-53
2021/10/19 00:13:59;;;;;;;23.75;15.57;;;13.00;99.30;;;;;;5027726;28;20033;-52
2021/10/19 00:16:25;;;;;;;22.80;15.73;;;13.00;99.40;;;;;;5021216;28;20045;-53
2021/10/19 00:18:50;;;;;;;21.42;14.52;;;13.00;99.40;;;;;;5038556;28;20099;-53
2021/10/19 00:21:16;;;;;;;23.25;15.40;;;13.00;99.40;;;;;;5039356;28;20041;-55
2021/10/19 00:23:41;;;;;;;24.35;14.85;;;13.00;99.50;;;;;;5045113;28;20505;-52
2021/10/19 00:26:07;;;;;;;23.48;15.00;;;13.00;99.60;;;;;;5032314;28;20033;-53
2021/10/19 00:28:32;;;;;;;22.23;14.68;;;13.00;99.60;;;;;;5041130;28;20033;-53
2021/10/19 00:30:58;;;;;;;22.08;15.65;;;13.00;99.90;;;;;;5031012;28;20037;-52
2021/10/19 00:33:24;;;;;;;23.55;15.10;;;13.00;99.80;;;;;;5035038;28;20060;-50
2021/10/19 00:35:49;;;;;;;23.35;15.45;;;13.00;99.70;;;;;;4999320;28;20108;-51
2021/10/19 00:38:15;;;;;;;19.92;15.07;;;13.00;99.80;;;;;;5033085;28;20073;-53
2021/10/19 00:40:41;;;;;;;23.35;15.32;;;13.00;99.90;;;;;;5031649;28;20486;-53
2021/10/19 00:43:07;;;;;;;23.00;15.93;;;13.00;99.80;;;;;;5004728;28;20037;-53
2021/10/19 00:45:34;;;;;;;23.42;15.50;;;13.00;99.90;;;;;;5010814;28;20120;-53
2021/10/19 00:48:00;;;;;;;23.88;15.00;;;13.00;99.90;;;;;;5027553;28;20158;-52
2021/10/19 00:50:26;;;;;;;20.35;14.93;;;13.00;99.90;;;;;;5019188;28;20042;-50
2021/10/19 00:52:55;;;;;;;22.38;14.77;;;13.00;99.90;;;;;;5035034;28;20119;-53
2021/10/19 00:55:21;;;;;;;21.63;15.05;;;13.00;99.90;;;;;;5014439;28;20049;-50
2021/10/19 00:57:48;;;;;;;23.77;15.70;;;13.00;99.90;;;;;;5027455;28;20041;-54
2021/10/19 01:00:14;;;;;;;23.45;15.40;;;13.00;99.90;;;;;;5039800;28;20044;-53
2021/10/19 01:02:43;;;;;;;20.45;14.95;;;12.90;99.90;;;;;;5031311;28;20124;-53
2021/10/19 01:05:10;;;;;;;20.00;15.23;;;12.90;99.90;;;;;;5031493;28;20540;-53
2021/10/19 01:07:35;;;;;;;24.83;15.93;;;12.90;99.90;;;;;;5042375;28;20037;-53
2021/10/19 01:10:03;;;;;;;23.52;16.25;;;13.00;99.90;;;;;;5032598;28;20521;-53
2021/10/19 01:12:28;;;;;;;21.20;15.27;;;13.00;99.90;;;;;;5031906;28;20037;-53
2021/10/19 01:14:54;;;;;;;23.90;15.20;;;13.00;99.90;;;;;;5033231;28;20049;-52
2021/10/19 01:17:19;;;;;;;24.95;16.10;;;13.00;99.90;;;;;;5030599;28;20041;-52
2021/10/19 01:19:51;;;;;;;26.00;16.05;;;13.00;99.90;;;;;;5033266;28;20186;-52
2021/10/19 01:22:17;;;;;;;24.20;15.73;;;13.00;99.90;;;;;;5036407;28;20462;-52
2021/10/19 01:24:44;;;;;;;20.38;15.27;;;12.90;99.90;;;;;;5031592;28;20149;-53
2021/10/19 01:27:10;;;;;;;24.00;16.17;;;13.00;99.90;;;;;;5021517;28;20452;-54
2021/10/19 01:29:36;;;;;;;23.55;15.77;;;13.00;99.90;;;;;;5030761;28;20033;-53
2021/10/19 01:32:02;;;;;;;23.45;15.45;;;13.00;99.90;;;;;;5035504;28;20079;-53
2021/10/19 01:34:35;;;;;;;21.98;15.40;;;13.00;99.90;;;;;;5032041;28;20073;-53
2021/10/19 01:37:02;;;;;;;22.80;15.77;;;13.00;99.90;;;;;;5022638;28;20084;-52
2021/10/19 01:39:28;;;;;;;21.45;15.05;;;13.00;99.90;;;;;;5031702;28;20398;-52
2021/10/19 01:41:53;;;;;;;24.00;15.75;;;13.00;99.90;;;;;;5034071;28;20497;-52
2021/10/19 01:44:20;;;;;;;23.35;16.13;;;13.00;99.90;;;;;;5036258;28;20037;-53
2021/10/19 01:46:45;;;;;;;23.80;16.08;;;13.00;99.90;;;;;;5035084;28;20037;-53
2021/10/19 01:49:11;;;;;;;25.58;16.45;;;13.00;99.90;;;;;;5031563;28;20045;-54
2021/10/19 01:51:36;;;;;;;25.73;16.92;;;13.00;99.90;;;;;;5039185;28;20033;-51
2021/10/19 01:54:02;;;;;;;22.10;15.35;;;12.90;99.90;;;;;;5039461;28;20029;-53
2021/10/19 01:56:28;;;;;;;21.70;15.50;;;12.90;99.90;;;;;;5002594;28;20133;-54
2021/10/19 01:58:54;;;;;;;24.67;15.85;;;12.90;99.90;;;;;;5041833;28;20545;-50
2021/10/19 02:01:20;;;;;;;21.75;15.90;;;12.90;99.90;;;;;;5037119;28;20033;-51
2021/10/19 02:03:46;;;;;;;23.00;16.08;;;12.90;99.90;;;;;;5006992;28;20041;-53
2021/10/19 02:06:11;;;;;;;23.95;15.65;;;12.90;99.90;;;;;;5032299;28;20148;-54
2021/10/19 02:08:37;;;;;;;24.65;16.10;;;12.90;99.90;;;;;;5038117;28;20041;-53
2021/10/19 02:11:03;;;;;;;24.55;16.75;;;12.90;99.90;;;;;;5038937;28;20065;-52
2021/10/19 02:13:29;;;;;;;24.27;15.98;;;13.00;99.90;;;;;;5031219;28;20042;-53
2021/10/19 02:15:55;;;;;;;27.75;15.45;;;13.00;99.90;;;;;;5036557;28;20067;-51
2021/10/19 02:18:20;;;;;;;23.02;15.82;;;13.00;99.90;;;;;;5030870;28;20041;-53
2021/10/19 02:20:46;;;;;;;24.90;15.75;;;13.00;99.90;;;;;;5024512;28;20107;-51
2021/10/19 02:23:12;;;;;;;22.50;15.05;;;13.00;99.90;;;;;;5045665;28;20037;-51
2021/10/19 02:25:37;;;;;;;24.23;16.58;;;13.00;99.90;;;;;;5039605;28;20044;-51
2021/10/19 02:28:03;;;;;;;22.83;16.85;;;13.00;99.90;;;;;;5034187;28;20493;-53
2021/10/19 02:30:29;;;;;;;21.40;16.13;;;13.00;99.90;;;;;;5042077;28;20048;-50
2021/10/19 02:32:55;;;;;;;23.80;15.95;;;13.00;99.90;;;;;;5042334;28;20079;-51
2021/10/19 02:35:21;;;;;;;25.63;16.60;;;13.00;99.90;;;;;;5042138;28;20126;-52
2021/10/19 02:37:49;;;;;;;23.05;16.20;;;13.00;99.90;;;;;;5047607;28;20037;-51
2021/10/19 02:40:15;;;;;;;24.15;16.90;;;13.00;99.90;;;;;;5036696;28;20034;-52
2021/10/19 02:42:42;;;;;;;23.25;16.23;;;13.00;99.90;;;;;;5031655;28;20555;-52
2021/10/19 02:45:09;;;;;;;24.20;16.83;;;13.00;99.90;;;;;;5037870;28;20082;-53
2021/10/19 02:47:34;;;;;;;25.30;16.83;;;13.00;99.90;;;;;;5037399;28;20041;-55
2021/10/19 02:50:00;;;;;;;22.95;16.08;;;13.00;99.90;;;;;;5019450;28;20053;-54
2021/10/19 02:52:25;;;;;;;23.23;16.20;;;13.00;99.90;;;;;;5027798;28;20034;-50
2021/10/19 02:54:51;;;;;;;22.30;16.15;;;13.00;99.90;;;;;;5030619;28;20055;-50
2021/10/19 02:57:18;;;;;;;21.98;16.08;;;12.90;99.90;;;;;;5032955;28;20033;-52
2021/10/19 02:59:44;;;;;;;22.67;16.77;;;13.00;99.90;;;;;;5028450;28;20045;-52
2021/10/19 03:02:10;;;;;;;24.08;17.17;;;13.00;99.90;;;;;;5028822;28;20060;-53
2021/10/19 03:04:35;;;;;;;20.98;15.80;;;13.00;99.90;;;;;;5025007;28;20681;-52
2021/10/19 03:07:01;;;;;;;21.92;16.08;;;13.00;99.90;;;;;;5029919;28;20041;-51
2021/10/19 03:09:26;;;;;;;23.88;16.38;;;13.00;99.90;;;;;;5032841;28;20048;-52
2021/10/19 03:11:52;;;;;;;22.33;15.82;;;13.00;99.90;;;;;;5040752;28;20026;-51
2021/10/19 03:14:17;;;;;;;22.58;16.45;;;13.00;99.90;;;;;;5030029;28;20062;-53
2021/10/19 03:16:47;;;;;;;23.55;15.95;;;13.00;99.90;;;;;;5019436;28;20068;-55
2021/10/19 03:19:12;;;;;;;21.48;16.75;;;13.00;99.90;;;;;;5042885;28;20071;-53
2021/10/19 03:21:38;;;;;;;24.08;15.77;;;13.10;99.90;;;;;;5034650;28;20069;-54
2021/10/19 03:24:04;;;;;;;23.92;17.00;;;13.10;99.90;;;;;;5032450;28;20398;-54
2021/10/19 03:26:30;;;;;;;21.65;16.40;;;13.10;99.90;;;;;;5024520;28;20433;-52
2021/10/19 03:28:56;;;;;;;24.08;16.30;;;13.10;99.90;;;;;;5032089;28;20095;-54
2021/10/19 03:31:22;;;;;;;22.10;16.58;;;13.10;99.90;;;;;;5016166;28;20053;-54
2021/10/19 03:33:47;;;;;;;24.88;16.23;;;13.10;99.90;;;;;;5032131;28;20148;-52
2021/10/19 03:36:13;;;;;;;23.42;16.27;;;13.10;99.90;;;;;;5041918;28;20033;-55
2021/10/19 03:38:39;;;;;;;23.83;16.83;;;13.10;99.90;;;;;;5033186;28;20452;-55
2021/10/19 03:41:06;;;;;;;22.38;15.65;;;13.10;99.90;;;;;;5034046;28;20604;-52
2021/10/19 03:43:31;;;;;;;24.50;15.90;;;13.20;99.90;;;;;;5030106;28;20095;-54
2021/10/19 03:45:57;;;;;;;22.17;16.45;;;13.20;99.90;;;;;;5036755;28;20095;-54
2021/10/19 03:48:23;;;;;;;20.27;15.60;;;13.20;99.90;;;;;;5036510;28;20049;-51
2021/10/19 03:50:48;;;;;;;23.85;16.75;;;13.20;99.90;;;;;;5033136;28;20048;-51
2021/10/19 03:53:14;;;;;;;23.67;16.60;;;13.20;99.90;;;;;;5033223;28;20041;-54
2021/10/19 03:55:40;;;;;;;23.08;16.48;;;13.20;99.90;;;;;;5027661;28;20111;-54
2021/10/19 03:58:06;;;;;;;21.45;15.75;;;13.20;99.90;;;;;;5037515;28;20041;-51
2021/10/19 04:04:27;;;;;;;22.20;15.80;;;13.30;99.90;;;;;;5038840;28;20052;-51
2021/10/19 04:06:53;;;;;;;21.65;15.70;;;13.20;99.90;;;;;;5032340;28;20045;-52
2021/10/19 04:09:19;;;;;;;24.00;16.38;;;13.20;99.90;;;;;;5033056;28;20108;-53
2021/10/19 04:11:44;;;;;;;24.63;16.35;;;13.30;99.90;;;;;;5038010;28;20124;-52
2021/10/19 04:14:10;;;;;;;26.27;16.42;;;13.20;99.90;;;;;;5033126;28;20034;-53
2021/10/19 04:16:35;;;;;;;22.35;15.15;;;13.30;99.90;;;;;;5035986;28;20052;-51
2021/10/19 04:19:02;;;;;;;21.88;16.05;;;13.30;99.90;;;;;;5032853;28;20045;-50
2021/10/19 04:21:28;;;;;;;22.13;15.60;;;13.30;99.90;;;;;;5026369;28;20080;-51
2021/10/19 04:23:53;;;;;;;21.92;15.93;;;13.30;99.90;;;;;;5039277;28;20498;-53
2021/10/19 04:26:19;;;;;;;20.83;15.27;;;13.30;99.90;;;;;;5038715;28;20025;-53
2021/10/19 04:28:45;;;;;;;22.83;15.95;;;13.30;99.90;;;;;;5040632;28;20091;-52
2021/10/19 04:31:12;;;;;;;26.58;16.63;;;13.40;99.90;;;;;;5042152;28;20049;-51
2021/10/19 04:33:38;;;;;;;22.67;15.82;;;13.50;99.90;;;;;;5014889;28;20041;-53
2021/10/19 04:36:04;;;;;;;23.58;15.98;;;13.40;99.90;;;;;;5034144;28;20071;-50
2021/10/19 04:38:32;;;;;;;26.92;16.33;;;13.40;99.90;;;;;;5019158;28;20076;-50
2021/10/19 04:40:58;;;;;;;23.13;16.23;;;13.40;99.90;;;;;;5019611;28;20548;-50
2021/10/19 04:45:59;;;;;;;23.80;16.27;;;13.40;99.90;;;;;;5810733;22;20103;-51
2021/10/19 04:53:36;;;;;;;23.60;16.38;;;13.40;99.90;;;;;;5029093;23;20049;-53
2021/10/19 04:56:03;;;;;;;23.60;16.02;;;13.40;99.90;;;;;;5030659;28;20123;-50
2021/10/19 04:58:29;;;;;;;22.83;16.13;;;13.40;99.90;;;;;;5013668;28;20422;-53
2021/10/19 05:00:55;;;;;;;26.35;17.60;;;13.50;99.90;;;;;;4970862;28;20046;-53
2021/10/19 05:03:20;;;;;;;25.42;16.80;;;13.50;99.90;;;;;;5011829;28;20941;-52
2021/10/19 05:05:46;;;;;;;24.75;16.75;;;13.50;99.90;;;;;;4997674;28;20072;-52
2021/10/19 05:08:12;;;;;;;23.27;16.88;;;13.50;99.90;;;;;;5014391;28;20494;-51
2021/10/19 05:10:38;;;;;;;26.08;18.17;;;13.50;99.90;;;;;;5002889;28;20602;-49
2021/10/19 05:13:04;;;;;;;25.02;17.33;;;13.50;99.90;;;;;;5011894;28;20038;-52
2021/10/19 05:15:30;;;;;;;27.25;18.35;;;13.50;99.90;;;;;;5004514;28;20045;-50
2021/10/19 05:17:55;;;;;;;29.08;18.40;;;13.50;99.90;;;;;;5010864;28;20131;-49
2021/10/19 05:20:22;;;;;;;28.90;17.95;;;13.40;99.90;;;;;;5008680;28;20045;-49
2021/10/19 05:22:48;;;;;;;25.45;17.70;;;13.40;99.90;;;;;;5003916;28;20048;-50
2021/10/19 05:25:15;;;;;;;28.65;18.73;;;13.40;99.90;;;;;;5009620;28;20034;-49
2021/10/19 05:27:41;;;;;;;27.30;17.52;;;13.40;99.90;;;;;;5008535;28;20096;-50
2021/10/19 05:30:07;;;;;;;29.98;18.95;;;13.40;99.90;;;;;;4971634;28;20046;-49
2021/10/19 05:32:33;;;;;;;29.23;19.25;;;13.40;99.90;;;;;;5011744;28;20477;-51
2021/10/19 05:34:59;;;;;;;28.88;19.23;;;13.40;99.90;;;;;;4989059;28;20069;-49
2021/10/19 05:37:25;;;;;;;28.35;20.17;;;13.40;99.90;;;;;;5010833;28;20049;-49
2021/10/19 05:39:50;;;;;;;30.77;21.00;;;13.40;99.90;;;;;;5010791;28;20044;-51
2021/10/19 05:42:16;;;;;;;25.67;18.85;;;13.40;99.90;;;;;;5011444;28;20034;-52
2021/10/19 05:44:42;;;;;;;30.80;19.48;;;13.30;99.90;;;;;;4991280;28;20406;-52
2021/10/19 05:47:08;;;;;;;27.98;20.60;;;13.30;99.90;;;;;;5010755;28;20045;-50
2021/10/19 05:49:34;;;;;;;29.75;20.90;;;13.30;99.90;;;;;;5005796;28;20030;-52
2021/10/19 05:52:00;;;;;;;31.58;21.17;;;13.30;99.90;;;;;;5005191;28;20042;-50
2021/10/19 05:54:26;;;;;;;29.13;20.00;;;13.30;99.90;;;;;;5005536;28;20042;-49
2021/10/19 05:56:53;;;;;;;32.42;21.17;;;13.30;99.90;;;;;;5010369;28;20038;-52
2021/10/19 05:59:19;;;;;;;33.13;21.67;;;13.50;99.90;;;;;;5011147;28;20030;-52
2021/10/19 06:01:44;;;;;;;30.92;21.88;;;13.30;99.90;;;;;;5004527;28;20026;-52
2021/10/19 06:04:10;;;;;;;33.85;21.63;;;13.30;99.90;;;;;;5006878;28;20038;-53
2021/10/19 06:06:35;;;;;;;34.50;22.02;;;13.40;99.90;;;;;;5009628;28;20042;-52
2021/10/19 06:09:02;;;;;;;37.50;22.08;;;13.30;99.90;;;;;;5007253;28;20041;-53
2021/10/19 06:11:28;;;;;;;33.40;21.27;;;13.30;99.90;;;;;;4990056;28;20038;-52
2021/10/19 06:13:54;;;;;;;34.00;23.05;;;13.30;99.90;;;;;;4961414;28;20062;-53
2021/10/19 06:16:20;;;;;;;33.00;22.50;;;13.30;99.90;;;;;;5010576;28;20066;-52
2021/10/19 06:18:47;;;;;;;34.45;22.40;;;13.30;99.90;;;;;;4976382;28;20030;-52
2021/10/19 06:21:13;;;;;;;36.70;22.73;;;13.30;99.90;;;;;;5007245;28;20104;-51
2021/10/19 06:23:38;;;;;;;35.60;23.38;;;13.30;99.90;;;;;;5006119;28;20042;-50
2021/10/19 06:26:04;;;;;;;31.60;22.23;;;13.40;99.90;;;;;;5010273;28;20446;-50
2021/10/19 06:28:30;;;;;;;36.80;22.45;;;13.40;99.90;;;;;;4991205;28;20038;-53
2021/10/19 06:30:56;;;;;;;32.28;22.65;;;13.40;99.90;;;;;;5007133;28;20402;-50
2021/10/19 06:33:21;;;;;;;34.80;22.77;;;13.40;99.90;;;;;;5010304;28;20105;-53
2021/10/19 06:35:47;;;;;;;32.85;22.00;;;13.40;99.90;;;;;;5009900;28;20493;-50
2021/10/19 06:38:12;;;;;;;31.98;22.80;;;13.40;99.90;;;;;;5010025;28;20036;-53
2021/10/19 06:40:38;;;;;;;30.92;21.48;;;13.40;99.90;;;;;;5009914;28;20418;-52
2021/10/19 06:43:05;;;;;;;33.30;22.55;;;13.40;99.90;;;;;;5009524;28;20042;-53
2021/10/19 06:45:31;;;;;;;30.52;22.02;;;13.50;99.90;;;;;;5011614;28;20072;-52
2021/10/19 06:47:57;;;;;;;28.23;21.77;;;13.50;99.90;;;;;;5009131;28;20046;-52
2021/10/19 06:50:23;;;;;;;30.08;22.48;;;13.50;99.90;;;;;;5012193;28;20048;-53
2021/10/19 06:52:48;;;;;;;28.40;20.52;;;13.50;99.90;;;;;;5011330;28;20034;-51
2021/10/19 06:55:15;;;;;;;31.63;21.90;;;13.50;99.90;;;;;;4982241;28;20037;-51
2021/10/19 06:57:42;;;;;;;32.22;22.83;;;13.50;99.90;;;;;;5012859;28;20053;-53
2021/10/19 07:00:13;;;;;;;29.67;22.02;;;13.60;99.90;;;;;;5011470;28;20578;-53
2021/10/19 07:02:39;;;;;;;31.63;21.83;;;13.60;99.90;;;;;;5013224;28;20034;-50
2021/10/19 07:05:06;;;;;;;34.25;21.92;;;13.60;99.90;;;;;;5006555;28;20034;-52
2021/10/19 07:07:32;;;;;;;28.25;21.77;;;13.60;99.90;;;;;;5010273;28;20378;-52
2021/10/19 07:09:58;;;;;;;28.50;20.63;;;13.60;99.90;;;;;;5009999;28;20030;-49
2021/10/19 07:12:24;;;;;;;29.60;21.75;;;13.70;99.90;;;;;;5011730;28;20045;-54
2021/10/19 07:14:50;;;;;;;27.90;21.45;;;13.70;99.90;;;;;;5007709;28;20042;-52
2021/10/19 07:17:16;;;;;;;29.48;21.55;;;13.70;99.90;;;;;;5009975;28;20065;-54
2021/10/19 07:19:41;;;;;;;28.00;21.45;;;13.70;99.90;;;;;;5012025;28;20506;-53
2021/10/19 07:22:08;;;;;;;29.55;21.17;;;13.70;99.90;;;;;;5013009;28;20041;-54
2021/10/19 07:24:33;;;;;;;29.40;21.40;;;13.80;99.90;;;;;;4997711;28;20044;-53
2021/10/19 07:26:59;;;;;;;32.17;22.33;;;13.80;99.90;;;;;;5011417;28;20042;-54
2021/10/19 07:29:25;;;;;;;30.55;22.80;;;13.80;99.90;;;;;;5013389;28;20100;-54
2021/10/19 07:31:50;;;;;;;31.02;21.67;;;13.80;99.90;;;;;;5011376;28;20091;-54
2021/10/19 07:34:16;;;;;;;27.63;21.20;;;13.80;99.90;;;;;;5013616;28;20498;-54
2021/10/19 07:36:42;;;;;;;33.97;22.33;;;13.80;99.90;;;;;;4998701;28;20507;-54
2021/10/19 07:39:07;;;;;;;32.42;22.27;;;13.90;99.90;;;;;;5013641;28;20042;-54
2021/10/19 07:41:36;;;;;;;30.30;21.10;;;13.90;99.90;;;;;;5013021;28;20053;-54
2021/10/19 07:44:03;;;;;;;30.42;21.10;;;13.90;99.90;;;;;;5013509;28;20495;-54
2021/10/19 07:46:29;;;;;;;29.15;20.75;;;14.00;99.90;;;;;;5012124;28;20037;-53
2021/10/19 07:48:55;;;;;;;31.45;21.85;;;14.00;99.90;;;;;;5012455;28;20498;-54
2021/10/19 07:51:21;;;;;;;26.80;20.42;;;13.90;99.90;;;;;;4992340;28;20049;-54
2021/10/19 07:53:47;;;;;;;30.02;20.08;;;14.00;99.90;;;;;;5013248;28;20030;-54
2021/10/19 07:56:14;;;;;;;25.70;19.38;;;14.00;99.90;;;;;;5011941;28;20034;-54
2021/10/19 07:58:39;;;;;;;28.35;19.92;;;14.00;99.90;;;;;;5006942;28;20634;-54
2021/10/19 08:01:05;;;;;;;28.10;19.50;;;14.00;99.90;;;;;;5000858;28;20034;-55
2021/10/19 08:03:32;;;;;;;23.13;19.13;;;14.10;99.90;;;;;;5009940;28;20181;-54
2021/10/19 08:05:58;;;;;;;24.45;17.75;;;14.10;99.90;;;;;;4979675;28;20501;-53
2021/10/19 08:08:24;;;;;;;24.15;16.85;;;14.10;99.90;;;;;;5009512;28;20042;-55
2021/10/19 08:10:50;;;;;;;24.20;16.70;;;14.20;99.90;;;;;;5007991;28;20049;-54
2021/10/19 08:13:18;;;;;;;20.48;16.77;;;14.20;99.90;;;;;;5015865;28;20044;-54
2021/10/19 08:15:45;;;;;;;18.98;15.70;;;14.20;99.90;;;;;;5010489;28;20034;-54
2021/10/19 08:18:11;;;;;;;19.75;15.88;;;14.30;99.90;;;;;;5004773;28;20037;-54
2021/10/19 08:20:37;;;;;;;20.88;15.35;;;14.30;99.90;;;;;;5000215;28;20053;-55
2021/10/19 08:23:03;;;;;;;21.23;15.60;;;14.30;99.90;;;;;;5006857;28;20061;-54
2021/10/19 08:25:29;;;;;;;21.13;15.52;;;14.30;99.90;;;;;;5011364;28;20054;-53
2021/10/19 08:27:56;;;;;;;21.17;15.63;;;14.30;99.90;;;;;;5012553;28;20034;-55
2021/10/19 08:30:22;;;;;;;21.75;14.85;;;14.40;99.90;;;;;;5011575;28;20044;-54
2021/10/19 08:32:48;;;;;;;19.88;15.15;;;14.40;99.90;;;;;;5007808;28;20396;-54
2021/10/19 08:35:15;;;;;;;19.50;14.70;;;14.40;99.90;;;;;;5012660;28;20076;-54
2021/10/19 08:37:41;;;;;;;18.35;14.73;;;14.40;99.90;;;;;;5011643;28;20053;-54
2021/10/19 08:40:08;;;;;;;20.80;15.52;;;14.50;99.90;;;;;;5012977;28;20041;-53
2021/10/19 08:42:41;;;;;;;16.92;14.10;;;14.50;99.90;;;;;;5012843;28;20046;-54
2021/10/19 08:45:16;;;;;;;18.20;14.57;;;14.50;99.90;;;;;;5011230;28;20037;-54
2021/10/19 08:47:44;;;;;;;18.92;14.10;;;14.50;99.90;;;;;;5011671;28;20084;-54
2021/10/19 08:50:12;;;;;;;21.92;14.15;;;14.50;99.90;;;;;;5005641;28;20080;-54
2021/10/19 08:52:38;;;;;;;18.42;14.45;;;14.60;99.90;;;;;;5012054;28;20045;-52
2021/10/19 08:55:04;;;;;;;20.00;14.77;;;14.60;99.90;;;;;;5011972;28;20048;-54
2021/10/19 08:57:31;;;;;;;19.45;14.27;;;14.60;99.90;;;;;;5009240;28;20145;-54
2021/10/19 08:59:56;;;;;;;19.63;14.68;;;14.60;99.90;;;;;;5012140;28;20046;-55
2021/10/19 09:02:57;;;;;;;19.60;14.68;;;14.70;99.90;;;;;;5012220;28;20151;-54
2021/10/19 09:05:26;;;;;;;20.90;14.40;;;14.70;99.90;;;;;;4886324;29;20409;-54
2021/10/19 09:08:03;;;;;;;19.05;14.45;;;14.70;99.90;;;;;;4992710;28;20101;-54
2021/10/19 09:10:37;;;;;;;20.75;14.15;;;14.70;99.90;;;;;;5012140;28;20042;-55
2021/10/19 09:13:14;;;;;;;20.98;15.25;;;14.70;99.90;;;;;;5006039;28;20033;-54
2021/10/19 09:15:42;;;;;;;20.75;14.73;;;14.80;99.90;;;;;;5010897;28;20041;-54
2021/10/19 09:18:13;;;;;;;22.10;15.32;;;14.80;99.90;;;;;;5011152;28;20038;-53
2021/10/19 09:20:48;;;;;;;22.40;15.38;;;14.80;99.90;;;;;;5011114;28;20060;-55
2021/10/19 09:23:15;;;;;;;21.75;14.88;;;14.80;99.90;;;;;;5011777;28;20065;-54
2021/10/19 09:25:43;;;;;;;21.20;15.38;;;14.90;99.90;;;;;;5011206;28;20046;-54
2021/10/19 09:28:11;;;;;;;20.48;15.15;;;14.90;99.90;;;;;;5010958;28;20398;-54
2021/10/19 09:30:40;;;;;;;21.33;15.30;;;14.90;99.90;;;;;;5009932;28;20081;-54
2021/10/19 09:33:09;;;;;;;19.25;14.52;;;14.90;99.90;;;;;;5017047;28;20082;-55
2021/10/19 09:35:35;;;;;;;22.58;16.42;;;14.90;99.90;;;;;;4977666;28;20042;-54
2021/10/19 09:38:08;;;;;;;20.60;14.60;;;14.90;99.90;;;;;;5010568;28;20080;-54
2021/10/19 09:40:37;;;;;;;17.33;13.43;;;14.90;99.90;;;;;;4994145;28;20050;-53
2021/10/19 09:43:07;;;;;;;18.83;14.52;;;14.90;99.90;;;;;;5011350;28;20576;-54
2021/10/19 09:45:34;;;;;;;19.65;14.60;;;15.00;99.90;;;;;;4977905;28;20030;-54
2021/10/19 09:48:01;;;;;;;23.10;14.73;;;15.00;99.90;;;;;;5012354;28;20045;-55
2021/10/19 09:50:28;;;;;;;18.88;14.52;;;15.00;99.90;;;;;;5008612;28;20033;-57
2021/10/19 09:52:54;;;;;;;19.48;14.23;;;15.00;99.90;;;;;;4990813;28;20114;-57
2021/10/19 09:55:22;;;;;;;21.40;14.43;;;15.10;99.90;;;;;;5007281;28;20030;-57
2021/10/19 09:57:50;;;;;;;19.70;14.23;;;15.10;99.90;;;;;;4986901;28;20065;-57
2021/10/19 10:00:16;;;;;;;19.92;15.05;;;15.10;99.90;;;;;;5011058;28;20041;-57
2021/10/19 10:02:44;;;;;;;19.50;15.02;;;15.20;99.90;;;;;;5005223;28;20499;-57
2021/10/19 10:05:11;;;;;;;21.38;14.35;;;15.20;99.90;;;;;;4977044;28;20033;-57
2021/10/19 10:07:40;;;;;;;19.88;14.25;;;15.10;99.90;;;;;;5009902;28;20045;-57
2021/10/19 10:10:07;;;;;;;17.27;14.02;;;15.20;99.90;;;;;;5000718;28;20117;-57
2021/10/19 10:12:34;;;;;;;21.73;14.38;;;15.20;99.90;;;;;;5003300;28;20050;-57
2021/10/19 10:15:00;;;;;;;23.23;14.68;;;15.20;99.90;;;;;;4997910;28;20061;-57
2021/10/19 10:17:26;;;;;;;20.77;13.90;;;15.20;99.90;;;;;;5000646;28;20073;-57
2021/10/19 10:19:53;;;;;;;20.35;14.18;;;15.20;99.90;;;;;;5006769;28;20041;-56
2021/10/19 10:22:25;;;;;;;28.25;15.85;;;15.20;99.90;;;;;;5003964;28;20058;-57
2021/10/19 10:25:01;;;;;;;;;;;15.30;99.90;;;;;;5005386;28;20134;-57
2021/10/19 10:27:27;;;;;;;20.63;13.73;;;15.30;99.90;;;;;;5011432;28;19929;-57
2021/10/19 10:29:53;;;;;;;20.75;14.13;;;15.30;99.90;;;;;;5013870;28;20080;-57
2021/10/19 10:38:36;;;;;;;21.58;15.35;;;15.30;99.90;;;;;;5230614;22;20286;-52
2021/10/19 10:41:14;;;;;;;23.50;15.65;;;15.40;99.90;;;;;;5019214;28;20038;-49
2021/10/19 10:43:40;;;;;;;23.92;15.68;;;15.40;99.90;;;;;;4986869;28;20050;-51
2021/10/19 10:46:20;;;;;;;23.75;15.20;;;15.40;99.90;;;;;;5012805;28;20041;-52
2021/10/19 10:48:47;;;;;;;27.25;15.98;;;15.40;99.90;;;;;;5006323;28;20417;-51
2021/10/19 10:51:24;;;;;;;25.60;15.90;;;15.50;99.90;;;;;;5022896;28;20034;-52
2021/10/19 10:53:49;;;;;;;20.65;14.85;;;15.50;99.90;;;;;;5009475;28;20038;-53
2021/10/19 10:56:16;;;;;;;25.52;15.60;;;15.50;99.90;;;;;;5011243;28;20065;-54
2021/10/19 10:58:43;;;;;;;23.25;16.10;;;15.50;99.90;;;;;;5012730;28;20121;-53
2021/10/19 11:01:20;;;;;;;23.35;15.02;;;15.60;99.90;;;;;;5013228;28;20061;-51
2021/10/19 11:03:52;;;;;;;21.63;14.85;;;15.60;99.90;;;;;;5011868;28;20084;-56
2021/10/19 11:06:20;;;;;;;21.88;14.77;;;15.60;99.90;;;;;;5011949;28;20415;-56
2021/10/19 11:08:57;;;;;;;21.73;15.68;;;15.70;99.90;;;;;;5010443;28;20033;-56
2021/10/19 11:11:24;;;;;;;21.02;14.93;;;15.70;99.90;;;;;;5013442;28;20041;-57
2021/10/19 11:13:58;;;;;;;25.70;15.68;;;15.70;99.90;;;;;;5000382;28;20099;-54
2021/10/19 11:16:31;;;;;;;21.55;15.15;;;15.80;99.90;;;;;;4993616;28;20049;-58
2021/10/19 11:18:58;;;;;;;23.42;15.00;;;15.80;99.90;;;;;;5000015;28;20411;-56
2021/10/19 11:21:24;;;;;;;22.15;14.60;;;15.80;99.90;;;;;;4996879;28;20085;-57
2021/10/19 11:23:50;;;;;;;21.80;14.40;;;15.90;99.90;;;;;;5013451;28;20065;-56
2021/10/19 11:26:15;;;;;;;19.05;13.43;;;15.90;99.90;;;;;;5009250;28;20077;-58
2021/10/19 11:28:44;;;;;;;18.02;13.52;;;15.90;99.90;;;;;;5008410;28;20069;-56
2021/10/19 11:31:11;;;;;;;18.98;13.43;;;15.90;99.90;;;;;;5011151;28;20042;-56
2021/10/19 11:33:40;;;;;;;22.05;13.85;;;16.00;99.90;;;;;;5002663;28;20038;-52
2021/10/19 11:36:06;;;;;;;15.85;12.35;;;16.00;99.90;;;;;;4995395;28;20088;-54
2021/10/19 11:38:39;;;;;;;18.30;12.35;;;16.10;99.90;;;;;;5009048;28;20050;-53
2021/10/19 11:41:16;;;;;;;19.10;13.05;;;16.10;99.90;;;;;;5007465;28;20056;-56
2021/10/19 11:43:43;;;;;;;18.98;12.98;;;16.10;99.90;;;;;;5005844;28;20037;-56
2021/10/19 11:46:12;;;;;;;17.63;11.88;;;16.20;99.90;;;;;;5008622;28;20042;-56
2021/10/19 11:48:38;;;;;;;16.77;12.23;;;16.20;99.90;;;;;;5012469;28;20041;-57
2021/10/19 11:51:07;;;;;;;19.38;12.25;;;16.20;99.90;;;;;;5011399;28;20037;-58
2021/10/19 11:53:37;;;;;;;15.02;11.35;;;16.20;99.90;;;;;;5003322;28;20069;-57
2021/10/19 11:56:04;;;;;;;15.80;10.82;;;16.20;99.90;;;;;;5003216;28;20030;-56
2021/10/19 11:58:31;;;;;;;17.38;11.52;;;16.20;99.90;;;;;;5009344;28;20457;-55
2021/10/19 12:00:56;;;;;;;14.32;10.43;;;16.30;99.90;;;;;;5005420;28;20517;-58
2021/10/19 12:03:29;;;;;;;14.45;10.60;;;16.30;99.90;;;;;;5007976;28;20078;-56
2021/10/19 12:05:54;;;;;;;12.93;9.55;;;16.40;99.90;;;;;;4996200;28;20049;-56
2021/10/19 12:08:20;;;;;;;12.75;9.35;;;16.40;99.90;;;;;;4989224;28;20045;-57
2021/10/19 12:10:47;;;;;;;13.57;10.05;;;16.40;99.90;;;;;;5003308;28;20044;-56
2021/10/19 12:13:15;;;;;;;12.30;9.35;;;16.40;99.90;;;;;;5012246;28;20053;-58
2021/10/19 12:15:41;;;;;;;12.45;8.57;;;16.50;99.90;;;;;;5007995;28;20042;-55
2021/10/19 12:18:17;;;;;;;12.07;8.65;;;16.50;99.90;;;;;;5012067;28;20448;-55
2021/10/19 12:20:45;;;;;;;13.40;8.90;;;16.60;99.90;;;;;;5006086;28;20111;-55
2021/10/19 12:23:12;;;;;;;11.95;8.77;;;16.70;99.90;;;;;;5002728;28;20034;-57
2021/10/19 12:25:47;;;;;;;11.40;8.07;;;16.70;99.90;;;;;;5010671;28;20474;-54
2021/10/19 12:28:21;;;;;;;13.05;9.02;;;16.70;99.90;;;;;;4993948;28;20542;-54
2021/10/19 12:30:47;;;;;;;11.82;8.45;;;16.70;99.90;;;;;;5010461;28;20084;-54
2021/10/19 12:33:24;;;;;;;11.65;8.65;;;16.70;99.90;;;;;;5008377;28;20510;-54
2021/10/19 12:36:09;;;;;;;13.70;9.23;;;16.90;99.90;;;;;;4988196;28;20089;-57
2021/10/19 12:38:38;;;;;;;12.80;8.55;;;16.90;99.90;;;;;;5011719;28;20104;-53
2021/10/19 12:41:11;;;;;;;12.20;8.27;;;16.80;99.90;;;;;;5007679;28;20060;-55
2021/10/19 12:43:38;;;;;;;13.25;8.75;;;16.80;99.90;;;;;;5001186;28;20038;-56
2021/10/19 12:46:05;;;;;;;12.88;8.95;;;16.90;99.90;;;;;;5007403;28;20073;-51